Time;durP1;ratioP1;P1;durP2;ratioP2;P2;SDS_P1;SDS_P2;PMS_P1;PMS_P2;Temp;Humidity;BMP_temperature;BMP_pressure;BME280_temperature;BME280_humidity;BME280_pressure;Samples;Min_cycle;Max_cycle;Signal;HPM_P1;HPM_P2
2021/10/17 00:02:44;;;;;;;10.82;7.95;;;;;;;;;;10460118;28;20043;-85
2021/10/17 00:07:45;;;;;;;10.23;7.85;;;;;;;;;;10478954;28;20348;-85
2021/10/17 00:12:46;;;;;;;10.35;8.20;;;;;;;;;;10460976;28;20124;-85
2021/10/17 00:17:47;;;;;;;10.10;7.60;;;;;;;;;;10460490;28;20033;-85
2021/10/17 00:22:49;;;;;;;10.27;7.32;;;;;;;;;;10460054;28;20040;-86
2021/10/17 00:27:50;;;;;;;9.10;7.25;;;;;;;;;;10459675;28;20021;-85
2021/10/17 00:32:51;;;;;;;9.00;6.90;;;;;;;;;;10459700;28;20043;-85
2021/10/17 00:37:52;;;;;;;8.43;6.80;;;;;;;;;;10460307;28;20052;-85
2021/10/17 00:42:56;;;;;;;11.07;7.32;;;;;;;;;;10458592;28;20029;-85
2021/10/17 00:47:58;;;;;;;9.10;7.00;;;;;;;;;;10466315;28;20067;-85
2021/10/17 00:52:59;;;;;;;10.10;6.95;;;;;;;;;;10492674;28;20021;-84
2021/10/17 00:58:01;;;;;;;10.70;8.50;;;;;;;;;;10492568;28;20013;-85
2021/10/17 01:03:01;;;;;;;9.73;7.93;;;;;;;;;;10492335;28;20021;-85
2021/10/17 01:08:02;;;;;;;9.90;7.43;;;;;;;;;;10467889;28;20025;-85
2021/10/17 01:13:03;;;;;;;11.18;8.35;;;;;;;;;;10454425;28;20090;-85
2021/10/17 01:18:04;;;;;;;;;;;;;;;;;;10452080;28;20040;-85
2021/10/17 01:23:05;;;;;;;9.98;7.65;;;;;;;;;;10450406;28;19896;-85
2021/10/17 01:28:06;;;;;;;9.95;7.60;;;;;;;;;;10450456;28;20032;-85
2021/10/17 01:33:07;;;;;;;;;;;;;;;;;;10451026;28;20051;-85
2021/10/17 01:38:10;;;;;;;9.02;7.35;;;;;;;;;;10452113;28;19904;-85
2021/10/17 01:43:11;;;;;;;11.55;8.77;;;;;;;;;;10472203;28;20067;-85
2021/10/17 01:48:12;;;;;;;9.93;8.63;;;;;;;;;;10454831;28;20495;-85
2021/10/17 01:53:13;;;;;;;8.15;7.20;;;;;;;;;;10453540;28;20051;-85
2021/10/17 01:58:14;;;;;;;9.55;6.78;;;;;;;;;;10454543;28;20024;-85
2021/10/17 02:03:15;;;;;;;11.10;7.65;;;;;;;;;;10465012;28;20558;-85
2021/10/17 02:08:15;;;;;;;10.45;7.65;;;;;;;;;;10480795;28;20075;-85
2021/10/17 02:13:16;;;;;;;7.82;6.85;;;;;;;;;;10467537;28;20036;-85
2021/10/17 02:18:17;;;;;;;8.73;6.97;;;;;;;;;;10453550;28;20044;-85
2021/10/17 02:23:18;;;;;;;;;;;;;;;;;;10454522;28;20086;-85
2021/10/17 02:28:19;;;;;;;8.93;7.15;;;;;;;;;;10454264;28;19931;-85
2021/10/17 02:33:20;;;;;;;;;;;;;;;;;;10467834;28;20107;-85
2021/10/17 02:38:21;;;;;;;7.95;7.03;;;;;;;;;;10467136;28;19912;-85
2021/10/17 02:43:22;;;;;;;;;;;;;;;;;;10468740;28;20025;-85
2021/10/17 02:48:23;;;;;;;8.65;6.88;;;;;;;;;;10467992;28;19909;-85
2021/10/17 02:53:23;;;;;;;7.90;6.55;;;;;;;;;;10454524;28;20033;-85
2021/10/17 02:58:24;;;;;;;9.30;6.45;;;;;;;;;;10446329;28;20461;-85
2021/10/17 03:03:25;;;;;;;8.98;6.47;;;;;;;;;;10446943;28;20029;-85
2021/10/17 03:08:26;;;;;;;;;;;;;;;;;;10449691;28;20082;-85
2021/10/17 03:13:27;;;;;;;8.10;6.60;;;;;;;;;;10454319;28;19956;-85
2021/10/17 03:18:28;;;;;;;8.48;6.68;;;;;;;;;;10454511;28;20045;-85
2021/10/17 03:23:29;;;;;;;;;;;;;;;;;;10455840;28;20083;-85
2021/10/17 03:28:30;;;;;;;7.60;5.82;;;;;;;;;;10453932;28;20359;-85
2021/10/17 03:33:31;;;;;;;8.05;6.40;;;;;;;;;;10455772;28;20036;-85
2021/10/17 03:38:32;;;;;;;7.90;6.22;;;;;;;;;;10454884;28;20033;-85
2021/10/17 03:43:33;;;;;;;7.88;6.20;;;;;;;;;;10452604;28;20079;-85
2021/10/17 03:48:34;;;;;;;7.72;5.90;;;;;;;;;;10471895;28;20064;-84
2021/10/17 03:53:36;;;;;;;6.80;5.55;;;;;;;;;;10454580;28;20059;-83
2021/10/17 03:58:37;;;;;;;7.72;6.10;;;;;;;;;;10453907;28;20029;-83
2021/10/17 04:03:38;;;;;;;8.88;5.40;;;;;;;;;;10453918;28;20056;-84
2021/10/17 04:08:39;;;;;;;6.35;5.18;;;;;;;;;;10453038;28;20040;-83
2021/10/17 04:13:40;;;;;;;6.43;5.20;;;;;;;;;;10453555;28;20150;-83
2021/10/17 04:18:41;;;;;;;6.45;5.40;;;;;;;;;;10452672;28;20083;-83
2021/10/17 04:23:42;;;;;;;;;;;;;;;;;;10452542;28;20040;-84
2021/10/17 04:28:43;;;;;;;6.40;4.97;;;;;;;;;;10451991;28;19915;-84
2021/10/17 04:33:44;;;;;;;6.70;4.93;;;;;;;;;;10452861;28;20499;-84
2021/10/17 04:38:45;;;;;;;7.15;5.05;;;;;;;;;;10451505;28;20057;-84
2021/10/17 04:43:46;;;;;;;;;;;;;;;;;;10450908;28;20053;-84
2021/10/17 04:48:47;;;;;;;7.55;5.32;;;;;;;;;;10450276;28;20042;-84
2021/10/17 04:53:47;;;;;;;6.75;4.47;;;;;;;;;;10451658;28;20032;-84
2021/10/17 04:58:48;;;;;;;7.15;4.93;;;;;;;;;;10452879;28;20028;-84
2021/10/17 05:03:49;;;;;;;6.63;5.13;;;;;;;;;;10452549;28;20025;-84
2021/10/17 05:08:50;;;;;;;6.32;4.55;;;;;;;;;;10451640;28;20037;-86
2021/10/17 05:13:52;;;;;;;6.80;4.75;;;;;;;;;;10449248;28;20029;-86
2021/10/17 05:18:53;;;;;;;8.00;4.95;;;;;;;;;;10484247;22;20048;-82
2021/10/17 05:23:53;;;;;;;5.00;4.10;;;;;;;;;;10486305;28;20056;-82
2021/10/17 05:28:54;;;;;;;6.35;4.57;;;;;;;;;;10486259;28;20032;-83
2021/10/17 05:33:55;;;;;;;5.13;4.20;;;;;;;;;;10504487;28;20021;-82
2021/10/17 05:38:56;;;;;;;;;;;;;;;;;;10505405;28;20486;-83
2021/10/17 05:43:57;;;;;;;6.13;4.68;;;;;;;;;;10494032;28;19915;-82
2021/10/17 05:48:58;;;;;;;7.90;4.68;;;;;;;;;;10497194;28;20055;-82
2021/10/17 05:53:59;;;;;;;5.97;4.68;;;;;;;;;;10482200;28;20436;-81
2021/10/17 05:59:02;;;;;;;6.35;4.30;;;;;;;;;;10483788;28;20052;-82
2021/10/17 06:04:03;;;;;;;7.43;4.93;;;;;;;;;;10485750;28;20111;-82
2021/10/17 06:09:04;;;;;;;5.68;4.28;;;;;;;;;;10484492;28;20123;-82
2021/10/17 06:14:08;;;;;;;6.15;4.25;;;;;;;;;;10485111;28;20048;-82
2021/10/17 06:19:09;;;;;;;7.47;4.70;;;;;;;;;;10495297;28;20119;-82
2021/10/17 06:24:10;;;;;;;6.20;4.47;;;;;;;;;;10485407;28;20489;-82
2021/10/17 06:29:11;;;;;;;7.25;4.57;;;;;;;;;;10485597;28;20090;-82
2021/10/17 06:34:12;;;;;;;6.50;3.92;;;;;;;;;;10505196;28;20059;-83
2021/10/17 06:39:13;;;;;;;5.57;4.28;;;;;;;;;;10488015;28;20363;-82
2021/10/17 06:44:14;;;;;;;6.07;4.10;;;;;;;;;;10492781;28;20020;-83
2021/10/17 06:49:15;;;;;;;5.60;4.38;;;;;;;;;;10495635;28;20020;-82
2021/10/17 06:54:16;;;;;;;6.07;4.40;;;;;;;;;;10533655;28;20021;-82
2021/10/17 06:59:17;;;;;;;7.32;5.00;;;;;;;;;;10516929;28;20032;-83
2021/10/17 07:04:18;;;;;;;5.63;4.25;;;;;;;;;;10517935;28;20316;-84
2021/10/17 07:09:19;;;;;;;6.95;4.03;;;;;;;;;;10498212;28;20040;-84
2021/10/17 07:14:20;;;;;;;5.28;3.45;;;;;;;;;;10498246;28;20060;-84
2021/10/17 07:19:21;;;;;;;8.23;4.70;;;;;;;;;;10497380;28;20043;-83
2021/10/17 07:24:22;;;;;;;7.43;5.57;;;;;;;;;;10494521;28;20034;-82
2021/10/17 07:29:23;;;;;;;5.32;4.00;;;;;;;;;;10495900;28;20051;-82
2021/10/17 07:34:24;;;;;;;8.60;5.80;;;;;;;;;;10494420;28;20094;-82
2021/10/17 07:39:25;;;;;;;9.25;5.43;;;;;;;;;;10493496;28;20044;-82
2021/10/17 07:44:25;;;;;;;7.05;5.22;;;;;;;;;;10512583;28;20025;-82
2021/10/17 07:49:27;;;;;;;5.88;4.13;;;;;;;;;;10507193;28;20031;-82
2021/10/17 07:54:28;;;;;;;7.82;5.78;;;;;;;;;;10527929;28;20028;-82
2021/10/17 07:59:29;;;;;;;5.30;3.97;;;;;;;;;;10514182;28;20028;-81
2021/10/17 08:04:30;;;;;;;8.18;4.72;;;;;;;;;;10513948;28;20028;-82
2021/10/17 08:09:31;;;;;;;6.57;4.20;;;;;;;;;;10512831;28;20039;-82
2021/10/17 08:14:33;;;;;;;5.50;3.70;;;;;;;;;;10491066;28;20085;-82
2021/10/17 08:19:33;;;;;;;6.47;4.50;;;;;;;;;;10490259;28;20075;-82
2021/10/17 08:24:34;;;;;;;9.70;5.72;;;;;;;;;;10493297;28;20028;-82
2021/10/17 08:29:35;;;;;;;6.88;4.68;;;;;;;;;;10492905;28;20025;-82
2021/10/17 08:34:36;;;;;;;;;;;;;;;;;;10491761;28;20032;-82
2021/10/17 08:39:37;;;;;;;6.63;4.93;;;;;;;;;;10509591;28;19908;-82
2021/10/17 08:44:40;;;;;;;4.78;3.78;;;;;;;;;;10491914;28;20111;-83
2021/10/17 08:49:43;;;;;;;6.43;4.28;;;;;;;;;;10492757;28;20478;-82
2021/10/17 08:54:47;;;;;;;13.73;7.65;;;;;;;;;;10503038;28;20024;-81
2021/10/17 08:59:49;;;;;;;5.32;3.92;;;;;;;;;;10514265;28;20035;-84
2021/10/17 09:05:00;;;;;;;10.10;8.10;;;;;;;;;;10510865;28;20039;-80
2021/10/17 09:10:05;;;;;;;8.45;5.35;;;;;;;;;;10489998;28;20035;-82
2021/10/17 09:15:23;;;;;;;7.70;4.93;;;;;;;;;;10491263;28;20021;-82
2021/10/17 09:20:24;;;;;;;12.38;6.80;;;;;;;;;;10509367;28;20035;-82
2021/10/17 09:25:36;;;;;;;7.00;4.82;;;;;;;;;;10510461;28;20554;-82
2021/10/17 09:30:38;;;;;;;5.90;4.28;;;;;;;;;;10491908;28;20072;-80
2021/10/17 09:35:39;;;;;;;6.18;4.38;;;;;;;;;;10491545;28;20024;-83
2021/10/17 09:40:41;;;;;;;7.40;4.43;;;;;;;;;;10509682;28;20025;-82
2021/10/17 09:45:43;;;;;;;5.93;3.88;;;;;;;;;;10493477;28;20020;-79
2021/10/17 09:50:45;;;;;;;13.38;6.72;;;;;;;;;;10507717;28;20020;-83
2021/10/17 09:55:52;;;;;;;6.38;4.35;;;;;;;;;;10505844;28;20091;-82
2021/10/17 10:00:53;;;;;;;8.13;4.43;;;;;;;;;;10519812;28;20044;-82
2021/10/17 10:05:56;;;;;;;14.35;7.60;;;;;;;;;;10493946;28;20025;-82
2021/10/17 10:10:58;;;;;;;6.38;3.90;;;;;;;;;;10492637;28;20035;-85
2021/10/17 10:16:00;;;;;;;9.60;4.57;;;;;;;;;;10488646;28;20052;-84
2021/10/17 10:21:01;;;;;;;13.77;6.90;;;;;;;;;;10496374;28;20048;-85
2021/10/17 10:26:01;;;;;;;;;;;;;;;;;;10496755;28;20451;-82
2021/10/17 10:31:02;;;;;;;5.35;3.70;;;;;;;;;;10503555;28;20255;-81
2021/10/17 10:36:05;;;;;;;7.72;4.80;;;;;;;;;;10508500;28;20092;-82
2021/10/17 10:41:16;;;;;;;10.82;5.78;;;;;;;;;;10509488;28;20047;-82
2021/10/17 10:46:16;;;;;;;;;;;;;;;;;;10510052;28;20063;-82
2021/10/17 10:51:37;;;;;;;6.15;3.60;;;;;;;;;;10511410;28;19908;-83
2021/10/17 10:56:41;;;;;;;7.07;4.45;;;;;;;;;;10509461;28;20062;-81
2021/10/17 11:02:10;;;;;;;7.72;4.50;;;;;;;;;;10508577;28;20084;-83
2021/10/17 11:07:21;;;;;;;10.70;4.43;;;;;;;;;;10536277;28;20092;-81
2021/10/17 11:12:41;;;;;;;5.77;3.20;;;;;;;;;;10535970;28;20028;-84
2021/10/17 11:17:55;;;;;;;6.72;3.33;;;;;;;;;;10525628;28;20047;-83
2021/10/17 11:22:57;;;;;;;6.63;3.22;;;;;;;;;;10494199;28;20570;-81
2021/10/17 11:27:58;;;;;;;5.03;3.00;;;;;;;;;;10512280;28;20456;-81
2021/10/17 11:33:00;;;;;;;10.73;5.18;;;;;;;;;;10511609;28;20098;-81
2021/10/17 11:38:02;;;;;;;9.05;3.60;;;;;;;;;;10510949;28;20029;-81
2021/10/17 11:43:07;;;;;;;5.70;3.22;;;;;;;;;;10492795;28;20032;-81
2021/10/17 11:48:17;;;;;;;6.38;3.38;;;;;;;;;;10493481;28;20490;-81
2021/10/17 11:53:18;;;;;;;6.27;3.07;;;;;;;;;;10491529;28;20024;-81
2021/10/17 11:58:23;;;;;;;9.52;3.95;;;;;;;;;;10492235;28;20048;-81
2021/10/17 12:03:26;;;;;;;4.05;2.42;;;;;;;;;;10495468;28;20031;-81
2021/10/17 12:08:28;;;;;;;3.92;2.40;;;;;;;;;;10507454;28;20126;-81
2021/10/17 12:13:30;;;;;;;4.70;2.90;;;;;;;;;;10490718;28;20489;-80
2021/10/17 12:18:31;;;;;;;4.80;2.55;;;;;;;;;;10489733;28;20470;-81
2021/10/17 12:23:32;;;;;;;4.60;2.40;;;;;;;;;;10507939;28;20593;-81
2021/10/17 12:28:34;;;;;;;4.95;2.35;;;;;;;;;;10507553;28;20146;-81
2021/10/17 12:33:37;;;;;;;3.78;2.13;;;;;;;;;;10490137;28;20024;-81
2021/10/17 12:38:38;;;;;;;4.45;2.20;;;;;;;;;;10491864;28;20031;-79
2021/10/17 12:43:43;;;;;;;5.10;2.70;;;;;;;;;;10539267;28;20028;-82
2021/10/17 12:48:48;;;;;;;3.72;2.17;;;;;;;;;;10516124;28;20024;-81
2021/10/17 12:54:01;;;;;;;4.13;2.17;;;;;;;;;;10505023;28;20017;-81
2021/10/17 12:59:05;;;;;;;5.85;2.72;;;;;;;;;;10506437;28;20039;-81
2021/10/17 13:04:13;;;;;;;4.20;2.10;;;;;;;;;;10511763;28;20021;-82
2021/10/17 13:09:14;;;;;;;5.50;2.13;;;;;;;;;;10491398;28;20028;-82
2021/10/17 13:14:14;;;;;;;3.83;1.85;;;;;;;;;;10490039;28;20051;-81
2021/10/17 13:19:17;;;;;;;3.85;2.22;;;;;;;;;;10491794;28;20043;-82
2021/10/17 13:24:18;;;;;;;2.92;1.88;;;;;;;;;;10492848;28;20393;-81
2021/10/17 13:29:19;;;;;;;6.80;4.47;;;;;;;;;;10488984;28;20060;-84
2021/10/17 13:34:20;;;;;;;4.00;2.50;;;;;;;;;;10488629;28;20024;-81
2021/10/17 13:39:21;;;;;;;3.38;2.08;;;;;;;;;;10488515;28;20024;-82
2021/10/17 13:44:22;;;;;;;4.15;2.42;;;;;;;;;;10488163;28;20422;-82
2021/10/17 13:49:23;;;;;;;4.63;2.08;;;;;;;;;;10488113;28;20063;-82
2021/10/17 13:54:24;;;;;;;2.72;1.80;;;;;;;;;;10486925;28;20031;-82
2021/10/17 13:59:26;;;;;;;3.70;1.90;;;;;;;;;;10488278;28;20035;-82
2021/10/17 14:04:28;;;;;;;3.70;2.08;;;;;;;;;;10488969;28;20035;-82
2021/10/17 14:09:28;;;;;;;2.92;1.70;;;;;;;;;;10504810;28;20032;-82
2021/10/17 14:14:29;;;;;;;3.22;1.67;;;;;;;;;;10487382;28;20394;-82
2021/10/17 14:19:32;;;;;;;5.00;2.00;;;;;;;;;;10488104;28;20036;-83
2021/10/17 14:24:33;;;;;;;2.30;1.83;;;;;;;;;;10486645;28;20028;-82
2021/10/17 14:29:34;;;;;;;3.65;2.00;;;;;;;;;;10505027;28;20028;-82
2021/10/17 14:34:35;;;;;;;2.83;1.60;;;;;;;;;;10487599;28;20017;-83
2021/10/17 14:39:35;;;;;;;2.22;1.65;;;;;;;;;;10505533;28;20463;-82
2021/10/17 14:44:36;;;;;;;3.95;1.90;;;;;;;;;;10504940;28;20036;-82
2021/10/17 14:49:37;;;;;;;1.90;1.67;;;;;;;;;;10486418;28;20086;-82
2021/10/17 14:54:38;;;;;;;6.63;1.90;;;;;;;;;;10487037;28;20059;-82
2021/10/17 14:59:39;;;;;;;3.33;2.00;;;;;;;;;;10487162;28;20034;-82
2021/10/17 15:04:40;;;;;;;3.25;1.70;;;;;;;;;;10490958;28;20471;-82
2021/10/17 15:09:41;;;;;;;3.25;2.10;;;;;;;;;;10494508;28;20031;-81
2021/10/17 15:14:42;;;;;;;7.75;3.40;;;;;;;;;;10493855;28;20085;-82
2021/10/17 15:19:43;;;;;;;2.97;1.60;;;;;;;;;;10493769;28;20033;-81
2021/10/17 15:24:44;;;;;;;3.30;1.73;;;;;;;;;;10493795;28;20055;-82
2021/10/17 15:29:45;;;;;;;3.45;1.92;;;;;;;;;;10511564;28;20032;-81
2021/10/17 15:34:46;;;;;;;3.28;2.00;;;;;;;;;;10511772;28;20020;-81
2021/10/17 15:39:47;;;;;;;2.65;1.55;;;;;;;;;;10514642;28;20033;-81
2021/10/17 15:44:48;;;;;;;2.33;1.90;;;;;;;;;;10520181;28;20029;-82
2021/10/17 15:49:49;;;;;;;2.70;1.70;;;;;;;;;;10499930;28;20020;-82
2021/10/17 15:54:50;;;;;;;3.33;1.88;;;;;;;;;;10517013;28;20032;-81
2021/10/17 15:59:51;;;;;;;2.38;1.95;;;;;;;;;;10500527;28;20028;-81
2021/10/17 16:04:52;;;;;;;2.05;1.60;;;;;;;;;;10499737;28;20097;-82
2021/10/17 16:09:53;;;;;;;2.78;1.80;;;;;;;;;;10510327;28;20029;-82
2021/10/17 16:14:54;;;;;;;2.83;1.92;;;;;;;;;;10504265;28;20041;-82
2021/10/17 16:19:55;;;;;;;2.55;2.10;;;;;;;;;;10496726;28;20059;-82
2021/10/17 16:24:56;;;;;;;2.60;1.58;;;;;;;;;;10498447;28;20024;-82
2021/10/17 16:29:57;;;;;;;2.28;1.50;;;;;;;;;;10536476;28;20043;-79
2021/10/17 16:34:59;;;;;;;2.75;1.80;;;;;;;;;;10527725;28;20120;-82
2021/10/17 16:40:00;;;;;;;2.38;1.60;;;;;;;;;;10496026;28;20032;-82
2021/10/17 16:45:01;;;;;;;2.42;1.90;;;;;;;;;;10496341;28;20029;-82
2021/10/17 16:50:02;;;;;;;2.95;2.03;;;;;;;;;;10496098;28;20096;-82
2021/10/17 16:55:03;;;;;;;2.20;1.70;;;;;;;;;;10495694;28;20031;-80
2021/10/17 17:00:04;;;;;;;2.78;2.10;;;;;;;;;;10494864;28;20029;-81
2021/10/17 17:05:06;;;;;;;3.15;2.17;;;;;;;;;;10494523;28;20028;-81
2021/10/17 17:10:07;;;;;;;5.45;3.05;;;;;;;;;;10494575;28;20028;-81
2021/10/17 17:15:08;;;;;;;4.97;2.67;;;;;;;;;;10493294;28;20478;-81
2021/10/17 17:20:10;;;;;;;2.72;2.20;;;;;;;;;;10491696;28;20056;-83
2021/10/17 17:25:15;;;;;;;4.78;2.90;;;;;;;;;;10489511;28;20137;-83
2021/10/17 17:30:17;;;;;;;5.22;4.03;;;;;;;;;;10488702;28;20078;-83
2021/10/17 17:35:19;;;;;;;4.40;3.70;;;;;;;;;;10490136;28;20048;-83
2021/10/17 17:40:20;;;;;;;8.20;4.15;;;;;;;;;;10488013;28;20024;-84
2021/10/17 17:45:21;;;;;;;5.95;4.95;;;;;;;;;;10489124;28;20028;-83
2021/10/17 17:50:22;;;;;;;7.65;5.57;;;;;;;;;;10490122;28;20027;-83
2021/10/17 17:55:23;;;;;;;5.65;4.43;;;;;;;;;;10507346;28;20056;-83
2021/10/17 18:00:25;;;;;;;8.48;5.97;;;;;;;;;;10507091;28;20033;-83
2021/10/17 18:05:26;;;;;;;5.53;4.80;;;;;;;;;;10488882;28;20028;-84
2021/10/17 18:10:27;;;;;;;6.60;4.65;;;;;;;;;;10490111;28;20390;-83
2021/10/17 18:15:29;;;;;;;6.03;5.18;;;;;;;;;;10511763;28;20017;-81
2021/10/17 18:20:30;;;;;;;4.95;3.75;;;;;;;;;;10487642;28;20048;-81
2021/10/17 18:25:35;;;;;;;6.97;5.60;;;;;;;;;;10487499;28;20040;-81
2021/10/17 18:30:37;;;;;;;9.05;6.35;;;;;;;;;;10523928;28;20104;-78
2021/10/17 18:35:38;;;;;;;5.65;4.40;;;;;;;;;;10514089;28;20008;-80
2021/10/17 18:40:39;;;;;;;8.10;6.18;;;;;;;;;;10522428;28;20020;-81
2021/10/17 18:45:41;;;;;;;7.95;6.38;;;;;;;;;;10521448;28;20012;-82
2021/10/17 18:50:41;;;;;;;7.00;5.68;;;;;;;;;;10524884;28;20017;-82
2021/10/17 18:55:42;;;;;;;7.63;6.10;;;;;;;;;;10502534;28;20024;-82
2021/10/17 19:00:43;;;;;;;10.10;7.35;;;;;;;;;;10516974;28;20110;-82
2021/10/17 19:05:45;;;;;;;10.02;7.45;;;;;;;;;;10517077;28;20028;-82
2021/10/17 19:10:46;;;;;;;7.82;6.38;;;;;;;;;;10516504;28;20024;-82
2021/10/17 19:15:47;;;;;;;7.57;6.00;;;;;;;;;;10496541;28;20119;-82
2021/10/17 19:20:48;;;;;;;11.10;7.47;;;;;;;;;;10496006;28;20032;-81
2021/10/17 19:25:49;;;;;;;8.23;6.70;;;;;;;;;;10495383;28;20032;-81
2021/10/17 19:30:50;;;;;;;8.15;6.80;;;;;;;;;;10495299;28;20021;-82
2021/10/17 19:35:51;;;;;;;7.88;6.85;;;;;;;;;;10495721;28;20028;-82
2021/10/17 19:40:52;;;;;;;8.57;6.28;;;;;;;;;;10495964;28;20039;-82
2021/10/17 19:45:53;;;;;;;8.73;6.90;;;;;;;;;;10495762;28;20035;-82
2021/10/17 19:50:54;;;;;;;10.82;8.88;;;;;;;;;;10494035;28;20033;-81
2021/10/17 19:55:56;;;;;;;10.48;8.60;;;;;;;;;;10494471;28;20127;-82
2021/10/17 20:00:57;;;;;;;11.90;8.57;;;;;;;;;;10494718;28;20402;-81
2021/10/17 20:05:58;;;;;;;9.70;7.47;;;;;;;;;;10514055;28;20103;-82
2021/10/17 20:10:59;;;;;;;8.95;6.80;;;;;;;;;;10496806;28;20478;-82
2021/10/17 20:16:01;;;;;;;8.48;6.85;;;;;;;;;;10514926;28;20024;-82
